Startpagina
METAR-TAF:

METAR-TAF

Vliegvelden :

Ninoy Aquino International Airport

Manilla, Filippijnen

breedte: 14-31N, lengte: 121-00E, hoogte: 14 m

Actueel weer

Dit bericht is 39 minuten geleden gemaakt, om 18:00 UTC
Wind 6 kt uit het oosten
Temperatuur 28°C
Vochtigheid 66%
Druk 1010 hPa
Zicht 10 km of meer
Weinig wolken op 2700 ft
Verspreide wolken op 10000 ft

METAR: RPLL 221800Z 09006KT 9999 FEW027 SCT100 28/21 Q1010 NOSIG RMK A2983

Tijdstip: 02:39 (18:39 UTC)

Verwachting

Dit bericht is 1 uur en het 39 minuten geleden gemaakt, om 17:00 UTC
Verwachting geldig van 22 om 18 UTC tot 23 om 24 UTC
Wind 6 kt uit het oostzuidoosten
Zicht 10 km of meer
Weinig wolken op 2500 ft
Tijdelijke
van 22 om 18 UTC tot 22 om 24 UTC
Wind 5 kt uit het oosten
Verspreide wolken op 2300 ft
Tijdelijke
van 23 om 00 UTC tot 23 om 06 UTC
Wind 12 kt uit het zuidoosten

TAF: RPLL 221700Z 2218/2324 11006KT 9999 FEW025 TX36/2306Z TN28/2222Z TEMPO 2218/2224 10005KT SCT023 TEMPO 2300/2306 13012KT

Waarnemingen en weersverwachtingen van meer dan 4000 vliegvelden (METAR en TAF).

De beschikbare stations zijn de gele en rode punten op de kaart.

Ga met uw muis naar het station om de naam te zien.

Klik dan om waarnemingen en weersverwachtingen te zien.

kaart wijzigen: klik op de groene knoppen met een zwart kruis om in te zoomen, op de groene knop met een streepje om uit te zoomen of op de groene pijlen voor aangrenzende kaarten.


METAR-TAF: